createdAt,value
2018-01-19T00:00:54.249Z,1.63
2018-01-19T00:03:20.291Z,1.52
2018-01-19T00:05:46.287Z,1.37
2018-01-19T00:08:12.301Z,1.35
2018-01-19T00:10:38.413Z,1.38
2018-01-19T00:13:04.411Z,1.22
2018-01-19T00:15:30.464Z,1.22
2018-01-19T00:17:56.548Z,1.21
2018-01-19T00:20:22.623Z,1.20
2018-01-19T00:22:48.652Z,1.17
2018-01-19T00:25:14.663Z,1.14
2018-01-19T00:27:40.697Z,1.13
2018-01-19T00:30:06.704Z,1.14
2018-01-19T00:32:32.725Z,1.10
2018-01-19T00:34:59.096Z,1.09
2018-01-19T00:37:25.089Z,1.11
2018-01-19T00:39:51.119Z,1.07
2018-01-19T00:42:17.139Z,1.11
2018-01-19T00:44:43.161Z,0.99
2018-01-19T00:47:09.281Z,0.98
2018-01-19T00:49:35.270Z,1.25
2018-01-19T00:52:01.276Z,1.24
2018-01-19T00:54:27.314Z,1.12
2018-01-19T00:56:53.309Z,1.07
2018-01-19T00:59:19.343Z,0.82
2018-01-19T01:01:45.315Z,0.63
2018-01-19T01:04:11.356Z,0.65
2018-01-19T01:06:37.376Z,0.73
2018-01-19T01:09:03.352Z,0.81
2018-01-19T01:11:29.408Z,0.95
2018-01-19T01:13:55.369Z,0.95
2018-01-19T01:16:21.369Z,1.25
2018-01-19T01:18:47.660Z,1.22
2018-01-19T01:21:13.652Z,1.14
2018-01-19T01:23:39.621Z,1.15
2018-01-19T01:26:05.564Z,1.28
2018-01-19T01:28:31.585Z,1.38
2018-01-19T01:30:57.616Z,1.42
2018-01-19T01:33:23.633Z,1.43
2018-01-19T01:35:49.635Z,1.42
2018-01-19T01:38:15.688Z,1.46
2018-01-19T01:40:41.711Z,1.46
2018-01-19T01:43:07.744Z,1.44
2018-01-19T01:45:33.783Z,1.45
2018-01-19T01:47:59.797Z,1.33
2018-01-19T01:50:25.816Z,1.32
2018-01-19T01:52:51.869Z,1.27
2018-01-19T01:55:17.847Z,1.25
2018-01-19T01:57:43.843Z,1.37
2018-01-19T02:00:09.876Z,1.48
2018-01-19T02:02:35.895Z,1.69
2018-01-19T02:05:01.973Z,1.72
2018-01-19T02:07:28.025Z,1.76
2018-01-19T02:09:54.053Z,1.73
2018-01-19T02:12:20.089Z,1.63
2018-01-19T02:14:46.109Z,1.61
2018-01-19T02:17:12.101Z,1.54
2018-01-19T02:19:38.297Z,1.68
2018-01-19T02:22:04.277Z,1.73
2018-01-19T02:24:30.277Z,1.75
2018-01-19T02:26:56.296Z,1.71
2018-01-19T02:29:22.337Z,1.74
2018-01-19T02:31:48.712Z,1.68
2018-01-19T02:34:14.745Z,1.72
2018-01-19T02:36:40.756Z,1.75
2018-01-19T02:39:06.855Z,1.78
2018-01-19T02:41:32.895Z,1.77
2018-01-19T02:43:58.945Z,1.78
2018-01-19T02:46:24.969Z,1.78
2018-01-19T02:48:51.045Z,1.78
2018-01-19T02:51:17.034Z,1.74
2018-01-19T02:53:43.033Z,1.73
2018-01-19T02:56:09.365Z,1.72
2018-01-19T02:58:35.368Z,1.73
2018-01-19T03:01:01.393Z,1.72
2018-01-19T03:03:27.443Z,1.70
2018-01-19T03:05:53.444Z,1.61
2018-01-19T03:08:19.493Z,1.66
2018-01-19T03:10:45.505Z,1.67
2018-01-19T03:13:11.524Z,1.70
2018-01-19T03:15:37.540Z,1.67
2018-01-19T03:18:03.561Z,1.64
2018-01-19T03:20:29.575Z,1.59
2018-01-19T03:22:55.567Z,1.55
2018-01-19T03:25:21.604Z,1.51
2018-01-19T03:27:47.623Z,1.43
2018-01-19T03:30:13.661Z,1.43
2018-01-19T03:32:39.724Z,1.53
2018-01-19T03:35:05.714Z,1.58
2018-01-19T03:37:31.723Z,1.54
2018-01-19T03:39:57.745Z,1.50
2018-01-19T03:42:23.718Z,1.53
2018-01-19T03:44:49.810Z,1.55
2018-01-19T03:47:15.892Z,1.58
2018-01-19T03:49:41.905Z,1.60
2018-01-19T03:52:07.984Z,1.56
2018-01-19T03:54:33.966Z,1.55
2018-01-19T03:56:59.997Z,1.52
2018-01-19T03:59:26.016Z,1.55
2018-01-19T04:01:52.009Z,1.55
2018-01-19T04:04:18.028Z,1.55
2018-01-19T04:06:44.064Z,1.58
2018-01-19T04:09:10.044Z,1.61
2018-01-19T04:11:36.101Z,1.57
2018-01-19T04:14:02.585Z,1.56
2018-01-19T04:16:28.630Z,1.58
2018-01-19T04:18:54.932Z,1.60
2018-01-19T04:21:20.933Z,1.51
2018-01-19T04:23:46.957Z,1.54
2018-01-19T04:26:13.069Z,1.42
2018-01-19T04:28:39.087Z,1.61
2018-01-19T04:31:05.072Z,1.66
2018-01-19T04:33:31.108Z,1.62
2018-01-19T04:35:57.123Z,1.65
2018-01-19T04:38:23.137Z,1.61
2018-01-19T04:40:49.173Z,1.52
2018-01-19T04:43:15.236Z,1.59
2018-01-19T04:45:41.616Z,1.52
2018-01-19T04:48:08.044Z,1.59
2018-01-19T04:50:34.152Z,1.59
2018-01-19T04:53:00.475Z,1.56
2018-01-19T04:55:26.428Z,1.57
2018-01-19T04:57:52.471Z,1.54
2018-01-19T05:00:18.512Z,1.50
2018-01-19T05:02:44.522Z,1.48
2018-01-19T05:05:10.552Z,1.55
2018-01-19T05:07:36.588Z,1.59
2018-01-19T05:10:02.623Z,1.57
2018-01-19T05:12:29.045Z,1.58
2018-01-19T05:14:55.077Z,1.57
2018-01-19T05:17:21.088Z,1.61
2018-01-19T05:19:47.080Z,1.61
2018-01-19T05:22:13.095Z,1.64
2018-01-19T05:24:39.143Z,1.68
2018-01-19T05:27:05.193Z,1.65
2018-01-19T05:29:31.227Z,1.69
2018-01-19T05:31:57.209Z,1.70
2018-01-19T05:34:23.215Z,1.70
2018-01-19T05:36:49.240Z,1.70
2018-01-19T05:39:15.248Z,1.68
2018-01-19T05:41:41.329Z,1.67
2018-01-19T05:44:07.471Z,1.72
2018-01-19T05:46:33.481Z,1.72
2018-01-19T05:48:59.463Z,1.71
2018-01-19T05:51:25.503Z,1.71
2018-01-19T05:53:51.532Z,1.70
2018-01-19T05:56:17.543Z,1.80
2018-01-19T05:58:43.942Z,1.80
2018-01-19T06:01:10.045Z,1.78
2018-01-19T06:03:36.017Z,1.82
2018-01-19T06:06:02.113Z,1.84
2018-01-19T06:08:28.128Z,1.83
2018-01-19T06:10:54.168Z,1.85
2018-01-19T06:13:20.216Z,1.87
2018-01-19T06:15:46.216Z,1.86
2018-01-19T06:18:12.224Z,1.92
2018-01-19T06:20:38.315Z,1.89
2018-01-19T06:23:04.337Z,1.84
2018-01-19T06:25:30.381Z,1.90
2018-01-19T06:27:56.369Z,1.78
2018-01-19T06:30:22.796Z,1.91
2018-01-19T06:32:48.897Z,1.88
2018-01-19T06:35:14.975Z,1.72
2018-01-19T06:37:41.051Z,1.61
2018-01-19T06:40:07.064Z,1.50
2018-01-19T06:42:33.149Z,1.37
2018-01-19T06:44:59.169Z,1.38
2018-01-19T06:47:25.212Z,1.38
2018-01-19T06:49:51.292Z,1.34
2018-01-19T06:52:17.612Z,1.51
2018-01-19T06:54:43.632Z,1.34
2018-01-19T06:57:09.629Z,1.37
2018-01-19T06:59:35.664Z,1.44
2018-01-19T07:02:01.724Z,1.61
2018-01-19T07:04:28.060Z,1.72
2018-01-19T07:06:54.072Z,1.74
2018-01-19T07:09:20.077Z,1.72
2018-01-19T07:11:46.089Z,1.56
2018-01-19T07:14:12.076Z,1.60
2018-01-19T07:16:38.042Z,1.71
2018-01-19T07:19:04.008Z,1.77
2018-01-19T07:21:29.966Z,1.70
2018-01-19T07:23:56.007Z,1.72
2018-01-19T07:26:22.012Z,1.65
2018-01-19T07:28:48.305Z,1.64
2018-01-19T07:31:14.367Z,1.57
2018-01-19T07:33:40.371Z,1.53
2018-01-19T07:36:06.404Z,1.69
2018-01-19T07:38:32.461Z,1.76
2018-01-19T07:40:58.517Z,1.60
2018-01-19T07:43:24.528Z,1.83
2018-01-19T07:45:50.625Z,1.85
2018-01-19T07:48:16.659Z,1.83
2018-01-19T07:50:42.701Z,1.80
2018-01-19T07:53:08.768Z,1.90
2018-01-19T07:55:34.779Z,1.99
2018-01-19T07:58:00.832Z,2.02
2018-01-19T08:00:26.867Z,2.18
2018-01-19T08:02:52.928Z,2.19
2018-01-19T08:05:18.924Z,2.19
2018-01-19T08:07:44.900Z,2.20
2018-01-19T08:10:11.001Z,2.26
2018-01-19T08:12:37.000Z,2.19
2018-01-19T08:15:04.240Z,2.26
2018-01-19T08:17:30.260Z,2.19
2018-01-19T08:19:56.361Z,2.15
2018-01-19T08:22:22.384Z,2.16
2018-01-19T08:24:48.426Z,2.19
2018-01-19T08:27:14.580Z,2.17
2018-01-19T08:29:40.607Z,2.19
2018-01-19T08:32:06.708Z,2.20
2018-01-19T08:34:32.765Z,2.21
2018-01-19T08:36:58.809Z,2.25
2018-01-19T08:39:24.836Z,2.31
2018-01-19T08:41:50.884Z,2.38
2018-01-19T08:44:16.998Z,2.45
2018-01-19T08:46:43.079Z,2.41
2018-01-19T08:49:09.103Z,2.51
2018-01-19T08:51:35.282Z,2.51
2018-01-19T08:54:01.336Z,2.52
2018-01-19T08:56:27.371Z,2.54
2018-01-19T08:58:53.444Z,2.52
2018-01-19T09:01:19.447Z,2.46
2018-01-19T09:03:45.458Z,2.51
2018-01-19T09:06:11.485Z,2.47
2018-01-19T09:08:37.508Z,2.37
2018-01-19T09:11:03.568Z,2.48
2018-01-19T09:13:29.629Z,2.47
2018-01-19T09:15:55.669Z,2.47
2018-01-19T09:18:21.672Z,2.56
2018-01-19T09:20:47.696Z,2.57
2018-01-19T09:23:13.689Z,2.60
2018-01-19T09:25:40.021Z,2.61
2018-01-19T09:28:06.005Z,2.60
2018-01-19T09:30:31.998Z,2.59
2018-01-19T09:32:58.035Z,2.59
2018-01-19T09:35:24.003Z,2.60
2018-01-19T09:37:50.048Z,2.67
2018-01-19T09:40:16.052Z,2.72
2018-01-19T09:42:42.057Z,2.72
2018-01-19T09:45:08.118Z,2.85
2018-01-19T09:47:34.109Z,2.89
2018-01-19T09:50:00.137Z,2.95
2018-01-19T09:52:26.167Z,3.01
2018-01-19T09:54:52.180Z,3.09
2018-01-19T09:57:18.221Z,3.15
2018-01-19T09:59:44.197Z,3.08
2018-01-19T10:02:10.204Z,3.02
2018-01-19T10:04:36.248Z,3.00
2018-01-19T10:07:02.245Z,2.98
2018-01-19T10:09:28.260Z,3.00
2018-01-19T10:11:54.239Z,2.99
2018-01-19T10:14:20.219Z,2.94
2018-01-19T10:16:46.265Z,3.02
2018-01-19T10:19:12.219Z,3.00
2018-01-19T10:21:38.252Z,3.09
2018-01-19T10:24:04.388Z,3.15
2018-01-19T10:26:30.435Z,3.32
2018-01-19T10:28:56.469Z,3.36
2018-01-19T10:31:22.504Z,3.37
2018-01-19T10:33:48.600Z,3.45
2018-01-19T10:36:14.568Z,3.44
2018-01-19T10:38:40.684Z,3.43
2018-01-19T10:41:06.724Z,3.46
2018-01-19T10:43:32.724Z,3.56
2018-01-19T10:45:58.848Z,3.47
2018-01-19T10:48:24.844Z,3.45
2018-01-19T10:50:50.862Z,3.36
2018-01-19T10:53:16.885Z,3.39
2018-01-19T10:55:43.008Z,3.23
2018-01-19T10:58:09.024Z,3.24
2018-01-19T11:00:35.096Z,3.26
2018-01-19T11:03:01.156Z,3.36
2018-01-19T11:05:27.196Z,3.26
2018-01-19T11:07:53.244Z,3.03
2018-01-19T11:10:19.333Z,2.94
2018-01-19T11:12:45.396Z,2.91
2018-01-19T11:15:11.389Z,2.94
2018-01-19T11:17:37.461Z,3.07
2018-01-19T11:20:03.708Z,3.08
2018-01-19T11:22:29.723Z,3.00
2018-01-19T11:24:55.768Z,3.09
2018-01-19T11:27:21.805Z,3.30
2018-01-19T11:29:47.796Z,3.18
2018-01-19T11:32:13.772Z,3.30
2018-01-19T11:34:39.757Z,3.35
2018-01-19T11:37:05.840Z,3.09
2018-01-19T11:39:31.853Z,2.89
2018-01-19T11:41:57.865Z,2.85
2018-01-19T11:44:23.857Z,2.83
2018-01-19T11:46:50.302Z,2.75
2018-01-19T11:49:16.377Z,2.79
2018-01-19T11:51:42.443Z,2.63
2018-01-19T11:54:08.533Z,2.52
2018-01-19T11:56:34.564Z,2.40
2018-01-19T11:59:00.583Z,2.34
2018-01-19T12:01:26.609Z,2.28
2018-01-19T12:03:52.618Z,2.34
2018-01-19T12:06:18.617Z,2.49
2018-01-19T12:08:44.603Z,2.53
2018-01-19T12:11:10.649Z,2.51
2018-01-19T12:13:36.642Z,2.69
2018-01-19T12:16:02.653Z,2.85
2018-01-19T12:18:28.815Z,3.20
2018-01-19T12:20:54.833Z,3.33
2018-01-19T12:23:20.925Z,3.50
2018-01-19T12:25:46.952Z,3.58
2018-01-19T12:28:12.958Z,3.66
2018-01-19T12:30:38.987Z,3.30
2018-01-19T12:33:05.016Z,3.17
2018-01-19T12:35:31.026Z,3.09
2018-01-19T12:37:57.072Z,2.92
2018-01-19T12:40:23.077Z,2.73
2018-01-19T12:42:49.102Z,2.38
2018-01-19T12:45:15.085Z,2.19
2018-01-19T12:47:41.046Z,2.14
2018-01-19T12:50:07.082Z,2.15
2018-01-19T12:52:33.086Z,2.18
2018-01-19T12:54:59.121Z,2.13
2018-01-19T12:57:25.122Z,1.99
2018-01-19T12:59:51.280Z,2.13
2018-01-19T13:02:17.278Z,2.16
2018-01-19T13:04:43.300Z,2.06
2018-01-19T13:07:09.351Z,2.14
2018-01-19T13:09:35.356Z,2.16
2018-01-19T13:12:01.353Z,2.19
2018-01-19T13:14:27.403Z,2.42
2018-01-19T13:16:53.476Z,2.37
2018-01-19T13:19:19.553Z,2.52
2018-01-19T13:21:45.558Z,2.61
2018-01-19T13:24:11.569Z,2.69
2018-01-19T13:26:37.569Z,2.67
2018-01-19T13:29:03.639Z,2.73
2018-01-19T13:31:29.717Z,2.77
2018-01-19T13:33:55.748Z,2.73
2018-01-19T13:36:21.741Z,2.68
2018-01-19T13:38:47.777Z,2.75
2018-01-19T13:41:13.920Z,2.75
2018-01-19T13:43:39.964Z,2.67
2018-01-19T13:46:06.083Z,2.66
2018-01-19T13:48:32.210Z,2.64
2018-01-19T13:50:58.232Z,2.60
2018-01-19T13:53:24.283Z,2.51
2018-01-19T13:55:50.813Z,2.42
2018-01-19T13:58:16.863Z,2.38
2018-01-19T14:00:43.079Z,2.42
2018-01-19T14:03:09.154Z,2.47
2018-01-19T14:05:35.265Z,2.43
2018-01-19T14:08:01.301Z,2.47
2018-01-19T14:10:27.304Z,2.48
2018-01-19T14:12:53.404Z,2.50
2018-01-19T14:15:19.453Z,2.48
2018-01-19T14:17:45.477Z,2.47
2018-01-19T14:20:11.704Z,2.49
2018-01-19T14:22:37.705Z,2.43
2018-01-19T14:25:03.916Z,2.38
2018-01-19T14:27:29.947Z,2.38
2018-01-19T14:29:56.049Z,2.38
2018-01-19T14:32:22.242Z,2.37
2018-01-19T14:34:48.290Z,2.34
2018-01-19T14:37:14.325Z,2.34
2018-01-19T14:39:40.466Z,2.36
2018-01-19T14:42:06.493Z,2.42
2018-01-19T14:44:32.541Z,2.40
2018-01-19T14:46:58.558Z,2.52
2018-01-19T14:49:24.636Z,2.55
2018-01-19T14:51:50.770Z,2.57
2018-01-19T14:54:16.819Z,2.52
2018-01-19T14:56:42.841Z,2.81
2018-01-19T14:59:08.864Z,3.17
2018-01-19T15:01:34.935Z,3.21
2018-01-19T15:04:01.010Z,3.23
2018-01-19T15:06:27.072Z,3.44
2018-01-19T15:08:53.208Z,3.39
2018-01-19T15:11:19.232Z,3.31
2018-01-19T15:13:45.698Z,3.11
2018-01-19T15:16:11.791Z,2.86
2018-01-19T15:18:38.216Z,2.96
2018-01-19T15:21:04.320Z,2.99
2018-01-19T15:23:30.353Z,2.92
2018-01-19T15:25:56.413Z,2.87
2018-01-19T15:28:22.438Z,2.84
2018-01-19T15:30:48.513Z,2.81
2018-01-19T15:33:14.507Z,2.72
2018-01-19T15:35:40.557Z,2.67
2018-01-19T15:38:06.612Z,2.74
2018-01-19T15:40:32.656Z,2.52
2018-01-19T15:42:58.661Z,2.46
2018-01-19T15:45:24.692Z,2.50
2018-01-19T15:47:50.891Z,2.69
2018-01-19T15:50:17.384Z,2.69
2018-01-19T15:52:43.437Z,2.62
2018-01-19T15:55:09.546Z,2.61
2018-01-19T15:57:35.526Z,2.56
2018-01-19T16:00:01.833Z,2.50
2018-01-19T16:02:27.857Z,2.48
2018-01-19T16:04:53.954Z,2.45
2018-01-19T16:07:20.369Z,2.44
2018-01-19T16:09:46.423Z,2.49
2018-01-19T16:12:12.513Z,2.50
2018-01-19T16:14:38.524Z,2.51
2018-01-19T16:17:04.577Z,2.46
2018-01-19T16:19:30.625Z,2.37
2018-01-19T16:21:56.785Z,2.36
2018-01-19T16:24:22.794Z,2.31
2018-01-19T16:26:48.821Z,2.24
2018-01-19T16:29:14.890Z,2.17
2018-01-19T16:31:40.885Z,2.10
2018-01-19T16:34:06.963Z,2.07
2018-01-19T16:36:32.980Z,2.01
2018-01-19T16:38:58.995Z,1.95
2018-01-19T16:41:25.110Z,2.01
2018-01-19T16:43:51.149Z,1.93
2018-01-19T16:46:17.357Z,1.91
2018-01-19T16:48:43.424Z,1.80
2018-01-19T16:51:09.385Z,1.80
2018-01-19T16:53:35.439Z,1.87
2018-01-19T16:56:01.492Z,1.86
2018-01-19T16:58:27.530Z,1.51
2018-01-19T17:00:53.577Z,1.28
2018-01-19T17:03:19.652Z,1.21
2018-01-19T17:05:45.688Z,1.18
2018-01-19T17:08:11.714Z,1.41
2018-01-19T17:10:37.801Z,1.56
2018-01-19T17:13:03.812Z,1.58
2018-01-19T17:15:29.829Z,1.57
2018-01-19T17:17:55.949Z,1.48
2018-01-19T17:20:21.997Z,1.34
2018-01-19T17:22:48.006Z,1.08
2018-01-19T17:25:14.064Z,1.05
2018-01-19T17:27:40.102Z,1.06
2018-01-19T17:30:06.224Z,1.06
2018-01-19T17:32:32.268Z,1.05
2018-01-19T17:34:58.277Z,1.06
2018-01-19T17:37:24.330Z,0.87
2018-01-19T17:39:50.580Z,0.77
2018-01-19T17:42:16.692Z,0.84
2018-01-19T17:44:42.743Z,0.92
2018-01-19T17:47:08.836Z,1.03
2018-01-19T17:49:34.861Z,1.17
2018-01-19T17:52:00.877Z,1.03
2018-01-19T17:54:26.896Z,1.08
2018-01-19T17:56:52.950Z,1.14
2018-01-19T17:59:18.983Z,1.22
2018-01-19T18:01:45.110Z,1.05
2018-01-19T18:04:11.132Z,0.94
2018-01-19T18:06:37.185Z,0.95
2018-01-19T18:09:03.209Z,0.88
2018-01-19T18:11:29.232Z,0.85
2018-01-19T18:13:55.369Z,0.80
2018-01-19T18:16:21.380Z,0.59
2018-01-19T18:18:47.414Z,0.66
2018-01-19T18:21:13.444Z,0.68
2018-01-19T18:23:39.496Z,0.69
2018-01-19T18:26:05.607Z,0.65
2018-01-19T18:28:31.656Z,0.58
2018-01-19T18:30:57.731Z,0.61
2018-01-19T18:33:23.772Z,0.59
2018-01-19T18:35:49.856Z,0.62
2018-01-19T18:38:15.906Z,0.63
2018-01-19T18:40:41.929Z,0.43
2018-01-19T18:43:08.009Z,0.29
2018-01-19T18:45:34.093Z,0.39
2018-01-19T18:48:00.160Z,0.44
2018-01-19T18:50:26.519Z,0.49
2018-01-19T18:52:52.559Z,0.48
2018-01-19T18:55:18.606Z,0.47
2018-01-19T18:57:44.638Z,0.27
2018-01-19T19:00:10.689Z,0.10
2018-01-19T19:02:36.680Z,0.14
2018-01-19T19:05:02.762Z,0.44
2018-01-19T19:07:28.766Z,0.48
2018-01-19T19:09:54.833Z,0.46
2018-01-19T19:12:20.928Z,0.57
2018-01-19T19:14:46.955Z,0.44
2018-01-19T19:17:12.976Z,0.52
2018-01-19T19:19:39.029Z,0.46
2018-01-19T19:22:05.056Z,0.33
2018-01-19T19:24:31.108Z,0.20
2018-01-19T19:26:57.165Z,0.16
2018-01-19T19:29:23.211Z,0.07
2018-01-19T19:31:49.295Z,0.02
2018-01-19T19:34:15.376Z,0.10
2018-01-19T19:36:41.409Z,0.16
2018-01-19T19:39:07.515Z,0.24
2018-01-19T19:41:33.525Z,0.31
2018-01-19T19:43:59.606Z,0.36
2018-01-19T19:46:25.661Z,0.32
2018-01-19T19:48:51.708Z,0.29
2018-01-19T19:51:17.698Z,0.23
2018-01-19T19:53:43.770Z,0.14
2018-01-19T19:56:09.843Z,0.16
2018-01-19T19:58:35.881Z,0.21
2018-01-19T20:01:02.239Z,0.22
2018-01-19T20:03:28.318Z,0.29
2018-01-19T20:05:54.320Z,0.33
2018-01-19T20:08:20.380Z,0.38
2018-01-19T20:10:46.419Z,0.39
2018-01-19T20:13:12.492Z,0.43
2018-01-19T20:15:38.594Z,0.44
2018-01-19T20:18:04.606Z,0.41
2018-01-19T20:20:30.742Z,0.40
2018-01-19T20:22:56.776Z,0.39
2018-01-19T20:25:23.143Z,0.36
2018-01-19T20:27:49.223Z,0.28
2018-01-19T20:30:15.280Z,0.30
2018-01-19T20:32:41.380Z,0.33
2018-01-19T20:35:07.397Z,0.32
2018-01-19T20:37:33.502Z,0.32
2018-01-19T20:39:59.507Z,0.32
2018-01-19T20:42:25.570Z,0.27
2018-01-19T20:44:51.657Z,0.21
2018-01-19T20:47:17.712Z,0.17
2018-01-19T20:49:43.807Z,0.17
2018-01-19T20:52:09.813Z,0.18
2018-01-19T20:54:35.896Z,0.16
2018-01-19T20:57:01.976Z,0.28
2018-01-19T20:59:28.873Z,0.25
2018-01-19T21:01:54.977Z,0.20
2018-01-19T21:04:21.051Z,0.25
2018-01-19T21:06:47.067Z,0.34
2018-01-19T21:09:13.058Z,0.23
2018-01-19T21:11:39.066Z,0.13
2018-01-19T21:14:05.160Z,-0.08
2018-01-19T21:16:31.184Z,-0.14
2018-01-19T21:18:57.226Z,-0.20
2018-01-19T21:21:23.273Z,-0.16
2018-01-19T21:23:49.429Z,-0.14
2018-01-19T21:26:15.444Z,-0.15
2018-01-19T21:28:41.445Z,-0.13
2018-01-19T21:31:07.617Z,-0.09
2018-01-19T21:33:33.696Z,-0.08
2018-01-19T21:35:59.815Z,-0.05
2018-01-19T21:38:26.047Z,-0.02
2018-01-19T21:40:52.119Z,-0.20
2018-01-19T21:43:18.065Z,-0.19
2018-01-19T21:45:44.116Z,-0.08
2018-01-19T21:48:10.278Z,0.13
2018-01-19T21:50:36.315Z,0.26
2018-01-19T21:53:02.364Z,0.15
2018-01-19T21:55:28.379Z,0.03
2018-01-19T21:57:55.655Z,-0.06
2018-01-19T22:00:21.739Z,-0.22
2018-01-19T22:02:47.790Z,-0.35
2018-01-19T22:05:13.832Z,-0.47
2018-01-19T22:07:39.939Z,-0.57
2018-01-19T22:10:05.961Z,-0.58
2018-01-19T22:12:32.058Z,-0.48
2018-01-19T22:14:58.205Z,-0.65
2018-01-19T22:17:24.243Z,-0.52
2018-01-19T22:19:50.284Z,-0.49
2018-01-19T22:22:16.489Z,-0.46
2018-01-19T22:24:42.553Z,-0.51
2018-01-19T22:27:08.580Z,-0.40
2018-01-19T22:29:34.681Z,-0.37
2018-01-19T22:32:00.807Z,-0.31
2018-01-19T22:34:26.844Z,-0.24
2018-01-19T22:36:52.877Z,-0.33
2018-01-19T22:39:19.064Z,-0.38
2018-01-19T22:41:45.089Z,-0.27
2018-01-19T22:44:11.108Z,-0.24
2018-01-19T22:46:37.174Z,-0.23
2018-01-19T22:49:03.220Z,-0.24
2018-01-19T22:51:29.257Z,-0.27
2018-01-19T22:53:55.292Z,-0.25
2018-01-19T22:56:21.354Z,-0.21
2018-01-19T22:58:47.397Z,-0.01
2018-01-19T23:01:13.497Z,0.01
2018-01-19T23:03:39.509Z,0.17
2018-01-19T23:06:05.592Z,0.24
2018-01-19T23:08:31.654Z,0.20
2018-01-19T23:10:57.695Z,0.14
2018-01-19T23:13:23.769Z,0.14
2018-01-19T23:15:49.819Z,0.07
2018-01-19T23:18:15.893Z,0.02
2018-01-19T23:20:41.944Z,0.03
2018-01-19T23:23:07.949Z,0.01
2018-01-19T23:25:33.997Z,0.00
2018-01-19T23:28:00.010Z,0.09
2018-01-19T23:30:26.110Z,0.07
2018-01-19T23:32:52.147Z,0.12
2018-01-19T23:35:18.228Z,0.10
2018-01-19T23:37:44.246Z,0.12
2018-01-19T23:40:10.261Z,0.13
2018-01-19T23:42:36.316Z,0.14
2018-01-19T23:45:02.372Z,0.15
2018-01-19T23:47:28.408Z,0.21
2018-01-19T23:49:54.437Z,0.24
2018-01-19T23:52:20.460Z,0.41
2018-01-19T23:54:46.516Z,0.47
2018-01-19T23:57:13.369Z,0.54
2018-01-19T23:59:39.416Z,0.66
